createdAt,value
2023-02-18T00:01:55.268Z,83.80
2023-02-18T00:06:48.018Z,83.97
2023-02-18T00:11:41.354Z,83.64
2023-02-18T00:16:36.695Z,82.96
2023-02-18T00:21:30.264Z,82.77
2023-02-18T00:26:23.620Z,82.33
2023-02-18T00:31:22.586Z,81.28
2023-02-18T00:36:18.505Z,81.07
2023-02-18T00:41:11.341Z,80.12
2023-02-18T00:46:04.285Z,79.28
2023-02-18T00:50:57.955Z,78.62
2023-02-18T00:55:50.747Z,78.08
2023-02-18T01:00:43.936Z,78.05
2023-02-18T01:05:39.914Z,77.17
2023-02-18T01:10:33.876Z,76.71
2023-02-18T01:15:26.966Z,76.77
2023-02-18T01:20:21.376Z,75.89
2023-02-18T01:25:15.371Z,75.36
2023-02-18T01:30:12.185Z,75.34
2023-02-18T01:35:07.835Z,74.69
2023-02-18T01:40:01.121Z,74.07
2023-02-18T01:44:54.791Z,73.75
2023-02-18T01:49:52.293Z,74.25
2023-02-18T01:54:51.671Z,74.11
2023-02-18T01:59:49.277Z,74.10
2023-02-18T02:04:42.747Z,73.82
2023-02-18T02:09:36.546Z,74.07
2023-02-18T02:14:40.861Z,73.96
2023-02-18T02:19:52.029Z,73.62
2023-02-18T02:25:29.756Z,73.08
2023-02-18T02:30:22.985Z,72.70
2023-02-18T02:35:28.369Z,71.74
2023-02-18T02:40:36.904Z,72.42
2023-02-18T02:46:11.336Z,72.27
2023-02-18T02:51:11.580Z,72.36
2023-02-18T02:56:05.158Z,72.21
2023-02-18T03:01:30.142Z,72.06
2023-02-18T03:06:45.239Z,71.75
2023-02-18T03:12:02.940Z,71.69
2023-02-18T03:17:03.643Z,71.29
2023-02-18T03:22:19.697Z,71.51
2023-02-18T03:27:22.167Z,71.69
2023-02-18T03:32:19.439Z,71.31
2023-02-18T03:37:13.954Z,71.01
2023-02-18T03:42:07.571Z,71.41
2023-02-18T03:47:00.916Z,71.21
2023-02-18T03:51:53.912Z,71.03
2023-02-18T03:56:47.259Z,70.85
2023-02-18T04:01:40.255Z,70.93
2023-02-18T04:06:33.316Z,70.68
2023-02-18T04:11:26.139Z,70.84
2023-02-18T04:16:18.986Z,70.44
2023-02-18T04:21:11.827Z,70.53
2023-02-18T04:26:05.076Z,70.50
2023-02-18T04:30:59.119Z,70.61
2023-02-18T04:35:51.917Z,70.39
2023-02-18T04:40:44.706Z,70.11
2023-02-18T04:45:39.655Z,69.75
2023-02-18T04:50:32.478Z,69.83
2023-02-18T04:55:25.299Z,70.02
2023-02-18T05:00:20.782Z,70.19
2023-02-18T05:05:14.988Z,69.70
2023-02-18T05:10:08.880Z,69.67
2023-02-18T05:15:01.721Z,69.66
2023-02-18T05:19:55.331Z,69.57
2023-02-18T05:24:48.340Z,69.21
2023-02-18T05:29:41.111Z,69.70
2023-02-18T05:34:33.950Z,69.57
2023-02-18T05:39:26.763Z,69.55
2023-02-18T05:44:31.924Z,69.31
2023-02-18T05:49:26.808Z,69.44
2023-02-18T05:54:19.580Z,69.50
2023-02-18T05:59:12.414Z,69.38
2023-02-18T06:04:05.252Z,69.21
2023-02-18T06:08:58.009Z,69.14
2023-02-18T06:13:50.789Z,68.92
2023-02-18T06:18:43.612Z,68.91
2023-02-18T06:23:36.501Z,69.14
2023-02-18T06:28:29.448Z,68.92
2023-02-18T06:33:22.734Z,68.77
2023-02-18T06:38:15.530Z,69.15
2023-02-18T06:43:08.283Z,68.51
2023-02-18T06:48:03.951Z,68.54
2023-02-18T06:52:56.742Z,68.59
2023-02-18T06:57:49.553Z,68.37
2023-02-18T07:02:42.381Z,68.46
2023-02-18T07:07:37.548Z,68.18
2023-02-18T07:12:30.318Z,68.36
2023-02-18T07:17:23.103Z,68.05
2023-02-18T07:22:15.901Z,68.04
2023-02-18T07:27:09.094Z,67.35
2023-02-18T07:32:01.919Z,67.38
2023-02-18T07:36:54.752Z,67.39
2023-02-18T07:41:49.535Z,66.97
2023-02-18T07:46:43.390Z,66.93
2023-02-18T07:51:37.854Z,67.00
2023-02-18T07:56:30.713Z,66.85
2023-02-18T08:01:23.493Z,66.35
2023-02-18T08:06:23.464Z,66.80
2023-02-18T08:11:19.394Z,65.80
2023-02-18T08:16:12.681Z,65.41
2023-02-18T08:21:05.814Z,65.76
2023-02-18T08:25:58.636Z,65.51
2023-02-18T08:30:54.810Z,65.50
2023-02-18T08:35:50.004Z,65.59
2023-02-18T08:40:43.117Z,64.95
2023-02-18T08:45:38.151Z,65.14
2023-02-18T08:50:31.629Z,64.82
2023-02-18T08:55:25.212Z,64.79
2023-02-18T09:00:19.030Z,64.79
2023-02-18T09:05:12.431Z,64.70
2023-02-18T09:10:06.294Z,63.64
2023-02-18T09:14:59.191Z,63.30
2023-02-18T09:19:51.967Z,63.06
2023-02-18T09:24:44.807Z,63.28
2023-02-18T09:29:40.873Z,63.02
2023-02-18T09:34:34.251Z,62.45
2023-02-18T09:39:27.322Z,62.32
2023-02-18T09:44:27.505Z,62.61
2023-02-18T09:49:24.883Z,62.30
2023-02-18T09:54:21.082Z,61.72
2023-02-18T09:59:23.937Z,60.47
2023-02-18T10:04:30.474Z,61.35
2023-02-18T10:09:40.335Z,61.25
2023-02-18T10:14:36.120Z,61.24
2023-02-18T10:19:41.040Z,61.32
2023-02-18T10:24:43.956Z,61.39
2023-02-18T10:29:37.642Z,61.53
2023-02-18T10:34:39.507Z,60.82
2023-02-18T10:39:53.285Z,60.36
2023-02-18T10:44:58.045Z,60.00
2023-02-18T10:50:01.461Z,59.95
2023-02-18T10:55:00.973Z,59.63
2023-02-18T11:00:16.254Z,59.39
2023-02-18T11:05:24.877Z,59.45
2023-02-18T11:10:23.398Z,59.68
2023-02-18T11:15:16.404Z,59.79
2023-02-18T11:20:26.470Z,60.08
2023-02-18T11:25:22.432Z,60.72
2023-02-18T11:30:27.996Z,60.74
2023-02-18T11:35:23.937Z,60.67
2023-02-18T11:40:42.594Z,61.16
2023-02-18T11:45:36.898Z,60.97
2023-02-18T11:50:35.359Z,60.74
2023-02-18T11:55:31.215Z,60.51
2023-02-18T12:00:43.100Z,60.79
2023-02-18T12:05:39.008Z,59.87
2023-02-18T12:10:47.776Z,59.91
2023-02-18T12:15:49.574Z,60.72
2023-02-18T12:20:59.841Z,60.22
2023-02-18T12:25:52.564Z,60.84
2023-02-18T12:31:09.524Z,60.29
2023-02-18T12:36:11.840Z,60.21
2023-02-18T12:41:11.201Z,60.46
2023-02-18T12:46:19.447Z,60.68
2023-02-18T12:51:18.428Z,59.85
2023-02-18T12:56:36.577Z,59.79
2023-02-18T13:01:32.023Z,60.01
2023-02-18T13:06:43.227Z,59.97
2023-02-18T13:11:57.853Z,60.07
2023-02-18T13:16:56.271Z,60.35
2023-02-18T13:21:56.605Z,60.24
2023-02-18T13:26:52.843Z,60.19
2023-02-18T13:31:56.003Z,60.05
2023-02-18T13:37:13.728Z,60.83
2023-02-18T13:42:18.904Z,60.87
2023-02-18T13:47:11.980Z,61.17
2023-02-18T13:52:06.042Z,61.28
2023-02-18T13:57:06.067Z,61.21
2023-02-18T14:02:28.964Z,61.47
2023-02-18T14:07:39.215Z,61.74
2023-02-18T14:12:31.962Z,61.91
2023-02-18T14:17:25.901Z,61.83
2023-02-18T14:22:34.194Z,61.80
2023-02-18T14:27:27.709Z,61.77
2023-02-18T14:32:22.517Z,62.26
2023-02-18T14:37:21.198Z,62.49
2023-02-18T14:42:19.961Z,62.74
2023-02-18T14:47:28.993Z,62.77
2023-02-18T14:52:34.104Z,63.19
2023-02-18T14:57:37.867Z,63.42
2023-02-18T15:02:32.040Z,63.55
2023-02-18T15:07:24.838Z,63.90
2023-02-18T15:12:25.637Z,64.36
2023-02-18T15:17:23.097Z,64.75
2023-02-18T15:22:22.236Z,65.70
2023-02-18T15:27:30.274Z,66.59
2023-02-18T15:32:29.578Z,66.97
2023-02-18T15:37:22.432Z,67.38
2023-02-18T15:42:27.581Z,67.30
2023-02-18T15:47:21.816Z,67.67
2023-02-18T15:52:15.182Z,68.30
2023-02-18T15:57:10.920Z,68.95
2023-02-18T16:02:10.085Z,69.35
2023-02-18T16:07:19.884Z,69.97
2023-02-18T16:12:33.639Z,70.25
2023-02-18T16:17:29.239Z,70.64
2023-02-18T16:22:36.452Z,70.91
2023-02-18T16:27:35.949Z,71.22
2023-02-18T16:32:28.699Z,71.47
2023-02-18T16:37:39.974Z,71.72
2023-02-18T16:42:32.783Z,72.06
2023-02-18T16:47:25.561Z,72.24
2023-02-18T16:52:19.673Z,72.32
2023-02-18T16:57:12.546Z,72.56
2023-02-18T17:02:05.561Z,72.77
2023-02-18T17:06:58.333Z,72.88
2023-02-18T17:11:53.265Z,73.27
2023-02-18T17:16:51.568Z,73.31
2023-02-18T17:21:46.977Z,73.35
2023-02-18T17:26:41.430Z,73.44
2023-02-18T17:31:44.661Z,73.76
2023-02-18T17:36:38.768Z,74.03
2023-02-18T17:41:31.539Z,74.07
2023-02-18T17:46:24.408Z,74.12
2023-02-18T17:51:29.734Z,74.26
2023-02-18T17:56:23.675Z,74.26
2023-02-18T18:01:17.325Z,74.30
2023-02-18T18:06:18.848Z,74.54
2023-02-18T18:11:17.525Z,74.77
2023-02-18T18:16:16.150Z,74.68
2023-02-18T18:21:20.152Z,74.83
2023-02-18T18:26:12.916Z,74.94
2023-02-18T18:31:06.599Z,74.85
2023-02-18T18:36:01.345Z,74.86
2023-02-18T18:40:55.518Z,74.81
2023-02-18T18:45:49.567Z,74.96
2023-02-18T18:50:44.067Z,74.96
2023-02-18T18:55:40.857Z,75.21
2023-02-18T19:00:44.760Z,75.13
2023-02-18T19:05:40.566Z,75.11
2023-02-18T19:10:36.578Z,75.45
2023-02-18T19:15:29.881Z,75.31
2023-02-18T19:20:27.172Z,75.40
2023-02-18T19:25:21.470Z,75.61
2023-02-18T19:30:34.850Z,75.65
2023-02-18T19:35:29.221Z,75.84
2023-02-18T19:40:25.353Z,76.12
2023-02-18T19:45:22.737Z,75.99
2023-02-18T19:50:20.338Z,76.20
2023-02-18T19:55:13.019Z,76.06
2023-02-18T20:00:09.781Z,76.03
2023-02-18T20:05:10.014Z,76.09
2023-02-18T20:10:03.621Z,76.40
2023-02-18T20:14:56.420Z,76.42
2023-02-18T20:19:49.223Z,76.46
2023-02-18T20:24:42.593Z,76.43
2023-02-18T20:29:36.423Z,76.72
2023-02-18T20:34:29.569Z,76.69
2023-02-18T20:39:22.768Z,76.77
2023-02-18T20:44:17.289Z,76.64
2023-02-18T20:49:14.482Z,76.81
2023-02-18T20:54:10.170Z,76.51
2023-02-18T20:59:06.125Z,76.51
2023-02-18T21:03:59.562Z,76.43
2023-02-18T21:08:54.374Z,76.53
2023-02-18T21:13:49.065Z,76.41
2023-02-18T21:18:42.677Z,76.65
2023-02-18T21:23:36.535Z,76.78
2023-02-18T21:28:29.283Z,76.68
2023-02-18T21:33:22.074Z,76.45
2023-02-18T21:38:14.856Z,76.56
2023-02-18T21:43:07.712Z,76.26
2023-02-18T21:48:20.483Z,76.33
2023-02-18T21:53:13.598Z,76.16
2023-02-18T21:58:06.438Z,75.81
2023-02-18T22:02:59.705Z,75.32
2023-02-18T22:07:55.549Z,75.37
2023-02-18T22:12:48.322Z,75.42
2023-02-18T22:17:41.126Z,75.37
2023-02-18T22:22:33.994Z,75.43
2023-02-18T22:27:27.834Z,75.40
2023-02-18T22:32:21.219Z,75.63
2023-02-18T22:37:14.130Z,75.76
2023-02-18T22:42:06.956Z,75.75
2023-02-18T22:46:59.769Z,75.60
2023-02-18T22:51:55.030Z,75.72
2023-02-18T22:56:49.029Z,75.64
2023-02-18T23:01:44.471Z,75.69
2023-02-18T23:06:38.790Z,75.53
2023-02-18T23:11:31.696Z,75.42
2023-02-18T23:16:24.497Z,75.15
2023-02-18T23:21:21.362Z,74.82
2023-02-18T23:26:17.730Z,75.01
2023-02-18T23:31:10.901Z,74.99
2023-02-18T23:36:16.920Z,75.05
2023-02-18T23:41:12.428Z,74.98
2023-02-18T23:46:05.357Z,75.09
2023-02-18T23:51:02.500Z,75.21
2023-02-18T23:56:27.923Z,75.21
